createdAt,value
2019-01-06T00:00:00.615Z,6.05
2019-01-06T02:26:45.142Z,4.48
2019-01-06T02:29:33.543Z,4.44
2019-01-06T02:32:22.221Z,4.41
2019-01-06T02:35:37.204Z,4.38
2019-01-06T02:38:37.566Z,4.32
2019-01-06T09:42:38.257Z,5.87
2019-01-06T14:59:38.204Z,6.23
2019-01-06T16:47:13.369Z,6.19
2019-01-06T16:50:19.541Z,6.92
2019-01-06T16:53:26.190Z,6.33
2019-01-06T17:09:11.369Z,6.12
2019-01-06T19:20:27.788Z,5.66
2019-01-06T19:23:18.098Z,5.63
2019-01-06T19:26:23.063Z,5.62
2019-01-06T19:29:31.378Z,5.58
2019-01-06T19:32:37.687Z,6.44
2019-01-06T19:35:42.971Z,5.86
2019-01-06T19:38:50.349Z,5.75
2019-01-06T19:41:57.203Z,6.58
2019-01-06T19:44:45.087Z,5.98
2019-01-06T19:47:47.387Z,5.87
2019-01-06T19:50:53.708Z,5.80
2019-01-06T19:54:08.243Z,5.75
2019-01-06T19:57:14.493Z,5.70
2019-01-06T20:00:22.193Z,5.65
2019-01-06T20:06:48.082Z,5.59
2019-01-06T20:09:58.730Z,5.55
2019-01-06T20:12:49.299Z,5.49
2019-01-06T20:16:04.386Z,5.45
2019-01-06T20:19:15.323Z,6.22
2019-01-06T20:22:29.009Z,5.61
2019-01-06T20:25:25.063Z,5.41
2019-01-06T20:28:22.383Z,5.36
2019-01-06T20:31:32.477Z,5.34
2019-01-06T20:34:24.120Z,5.30
2019-01-06T20:37:33.390Z,5.30
2019-01-06T20:40:21.055Z,5.27
2019-01-06T20:43:21.841Z,5.24
2019-01-06T20:46:31.046Z,5.22
2019-01-06T20:49:32.867Z,5.23
2019-01-06T20:52:41.636Z,5.20
2019-01-06T20:55:29.695Z,5.18
2019-01-06T20:58:29.606Z,5.14
2019-01-06T21:01:38.584Z,5.10
2019-01-06T21:04:52.361Z,5.12
2019-01-06T21:07:49.987Z,5.14
2019-01-06T21:10:49.841Z,5.14
2019-01-06T21:14:08.167Z,5.13
2019-01-06T21:17:11.495Z,5.14
2019-01-06T21:20:06.239Z,5.14
2019-01-06T21:26:29.912Z,5.15
2019-01-06T21:29:21.852Z,5.16
2019-01-06T21:32:28.546Z,5.16
2019-01-06T21:35:35.382Z,6.04
2019-01-06T21:41:58.704Z,5.36
2019-01-06T21:44:53.155Z,5.35
2019-01-06T21:47:52.489Z,5.33
2019-01-06T21:51:01.747Z,5.31
2019-01-06T21:53:51.902Z,5.29
2019-01-06T21:56:48.236Z,5.28
2019-01-06T21:59:41.319Z,5.27
2019-01-06T22:02:41.006Z,5.27
2019-01-06T22:05:28.699Z,6.12
2019-01-06T22:08:35.586Z,5.56
2019-01-06T22:11:32.764Z,5.43
2019-01-06T22:14:27.883Z,5.38
2019-01-06T22:17:35.426Z,5.34
2019-01-06T22:20:57.194Z,5.32
2019-01-06T22:23:44.355Z,5.29
2019-01-06T22:26:43.954Z,5.28
2019-01-06T22:29:49.597Z,5.26
2019-01-06T22:36:19.156Z,5.23
2019-01-06T22:39:10.868Z,5.19
2019-01-06T22:42:07.598Z,5.13
2019-01-06T22:45:03.968Z,5.12
2019-01-06T22:51:10.340Z,5.08
2019-01-06T22:54:01.581Z,5.10
2019-01-06T22:57:08.540Z,5.10
2019-01-06T23:00:07.441Z,5.11
2019-01-06T23:03:13.815Z,5.12
2019-01-06T23:06:07.635Z,5.13
2019-01-06T23:09:07.299Z,5.15
2019-01-06T23:11:55.071Z,5.16
2019-01-06T23:14:42.080Z,5.16
2019-01-06T23:17:32.224Z,5.17
2019-01-06T23:20:24.650Z,5.18
2019-01-06T23:23:12.972Z,5.18
2019-01-06T23:26:02.815Z,5.18
2019-01-06T23:39:03.618Z,5.20
2019-01-06T23:41:51.559Z,5.21
2019-01-06T23:44:42.979Z,5.22
2019-01-06T23:47:59.172Z,5.23
2019-01-06T23:50:46.504Z,5.23
2019-01-06T23:53:33.977Z,5.24
2019-01-06T23:56:27.090Z,5.25
2019-01-06T23:59:16.848Z,5.24
